sensor_id;sensor_type;location;lat;lon;timestamp;pressure;altitude;pressure_sealevel;temperature;humidity
43119;BME280;28729;49.838;8.650;2023-03-01T00:03:24;100868.72;;;-1.01;79.75
43119;BME280;28729;49.838;8.650;2023-03-01T00:07:26;100868.00;;;-1.03;78.67
43119;BME280;28729;49.838;8.650;2023-03-01T00:11:29;100874.84;;;-1.08;79.03
43119;BME280;28729;49.838;8.650;2023-03-01T00:15:32;100863.19;;;-1.09;79.00
43119;BME280;28729;49.838;8.650;2023-03-01T00:19:33;100878.56;;;-1.09;78.82
43119;BME280;28729;49.838;8.650;2023-03-01T00:23:36;100864.88;;;-1.08;79.22
43119;BME280;28729;49.838;8.650;2023-03-01T00:27:37;100871.84;;;-1.05;79.45
43119;BME280;28729;49.838;8.650;2023-03-01T00:31:39;100871.72;;;-1.04;78.89
43119;BME280;28729;49.838;8.650;2023-03-01T00:35:41;100865.72;;;-1.07;79.43
43119;BME280;28729;49.838;8.650;2023-03-01T00:39:42;100857.78;;;-1.09;79.37
43119;BME280;28729;49.838;8.650;2023-03-01T00:43:45;100850.66;;;-1.10;79.18
43119;BME280;28729;49.838;8.650;2023-03-01T00:47:48;100847.97;;;-1.10;79.99
43119;BME280;28729;49.838;8.650;2023-03-01T00:51:50;100842.81;;;-1.03;80.28
43119;BME280;28729;49.838;8.650;2023-03-01T00:55:51;100831.69;;;-1.00;79.38
43119;BME280;28729;49.838;8.650;2023-03-01T00:59:53;100834.09;;;-0.97;79.57
43119;BME280;28729;49.838;8.650;2023-03-01T01:03:57;100831.22;;;-0.96;79.53
43119;BME280;28729;49.838;8.650;2023-03-01T01:07:59;100822.78;;;-0.93;80.20
43119;BME280;28729;49.838;8.650;2023-03-01T01:12:00;100808.41;;;-0.93;80.28
43119;BME280;28729;49.838;8.650;2023-03-01T01:16:02;100800.53;;;-0.86;79.94
43119;BME280;28729;49.838;8.650;2023-03-01T01:20:04;100788.19;;;-0.89;80.19
43119;BME280;28729;49.838;8.650;2023-03-01T01:24:06;100784.31;;;-0.86;81.26
43119;BME280;28729;49.838;8.650;2023-03-01T01:28:08;100781.06;;;-0.90;81.17
43119;BME280;28729;49.838;8.650;2023-03-01T01:32:09;100780.94;;;-0.88;80.94
43119;BME280;28729;49.838;8.650;2023-03-01T01:36:11;100784.47;;;-0.88;82.18
43119;BME280;28729;49.838;8.650;2023-03-01T01:40:13;100779.47;;;-0.83;82.15
43119;BME280;28729;49.838;8.650;2023-03-01T01:48:32;100771.72;;;-0.78;81.88
43119;BME280;28729;49.838;8.650;2023-03-01T01:52:41;100760.34;;;-0.81;82.74
43119;BME280;28729;49.838;8.650;2023-03-01T01:56:48;100768.16;;;-0.78;82.55
43119;BME280;28729;49.838;8.650;2023-03-01T02:00:50;100757.03;;;-0.75;82.63
43119;BME280;28729;49.838;8.650;2023-03-01T02:05:01;100761.16;;;-0.71;83.09
43119;BME280;28729;49.838;8.650;2023-03-01T02:09:08;100761.78;;;-0.77;84.57
43119;BME280;28729;49.838;8.650;2023-03-01T02:13:12;100773.56;;;-0.78;83.80
43119;BME280;28729;49.838;8.650;2023-03-01T02:17:16;100762.81;;;-0.88;84.44
43119;BME280;28729;49.838;8.650;2023-03-01T02:21:28;100769.69;;;-0.94;84.62
43119;BME280;28729;49.838;8.650;2023-03-01T02:29:57;100768.13;;;-0.96;84.54
43119;BME280;28729;49.838;8.650;2023-03-01T02:33:59;100753.63;;;-0.95;84.92
43119;BME280;28729;49.838;8.650;2023-03-01T02:38:03;100753.94;;;-0.98;85.15
43119;BME280;28729;49.838;8.650;2023-03-01T02:42:11;100741.25;;;-0.98;84.75
43119;BME280;28729;49.838;8.650;2023-03-01T02:46:25;100746.34;;;-0.95;84.01
43119;BME280;28729;49.838;8.650;2023-03-01T02:50:36;100742.94;;;-0.97;84.87
43119;BME280;28729;49.838;8.650;2023-03-01T02:54:58;100734.69;;;-0.95;84.68
43119;BME280;28729;49.838;8.650;2023-03-01T02:59:01;100722.16;;;-0.96;84.26
43119;BME280;28729;49.838;8.650;2023-03-01T03:03:04;100728.03;;;-1.01;84.37
43119;BME280;28729;49.838;8.650;2023-03-01T03:07:05;100715.66;;;-1.03;84.99
43119;BME280;28729;49.838;8.650;2023-03-01T03:11:07;100701.97;;;-1.02;85.40
43119;BME280;28729;49.838;8.650;2023-03-01T03:15:10;100708.38;;;-1.03;85.68
43119;BME280;28729;49.838;8.650;2023-03-01T03:19:14;100694.88;;;-1.03;85.67
43119;BME280;28729;49.838;8.650;2023-03-01T03:23:16;100688.75;;;-1.05;86.13
43119;BME280;28729;49.838;8.650;2023-03-01T03:27:18;100684.03;;;-1.03;86.19
43119;BME280;28729;49.838;8.650;2023-03-01T03:31:20;100686.56;;;-1.01;86.32
43119;BME280;28729;49.838;8.650;2023-03-01T03:35:27;100684.88;;;-1.02;86.71
43119;BME280;28729;49.838;8.650;2023-03-01T03:39:31;100679.78;;;-1.05;86.55
43119;BME280;28729;49.838;8.650;2023-03-01T03:43:37;100678.22;;;-1.08;86.94
43119;BME280;28729;49.838;8.650;2023-03-01T03:47:39;100676.94;;;-1.04;86.71
43119;BME280;28729;49.838;8.650;2023-03-01T03:51:41;100672.06;;;-1.00;86.65
43119;BME280;28729;49.838;8.650;2023-03-01T03:55:42;100668.34;;;-0.99;86.62
43119;BME280;28729;49.838;8.650;2023-03-01T03:59:45;100667.91;;;-0.95;85.84
43119;BME280;28729;49.838;8.650;2023-03-01T04:03:47;100670.28;;;-0.92;85.76
43119;BME280;28729;49.838;8.650;2023-03-01T04:07:49;100671.84;;;-0.89;85.96
43119;BME280;28729;49.838;8.650;2023-03-01T04:11:50;100667.94;;;-0.86;86.03
43119;BME280;28729;49.838;8.650;2023-03-01T04:15:52;100665.63;;;-0.81;86.18
43119;BME280;28729;49.838;8.650;2023-03-01T04:19:54;100668.22;;;-0.80;85.23
43119;BME280;28729;49.838;8.650;2023-03-01T04:23:56;100669.19;;;-0.81;86.03
43119;BME280;28729;49.838;8.650;2023-03-01T04:27:58;100679.25;;;-0.73;85.89
43119;BME280;28729;49.838;8.650;2023-03-01T04:31:59;100666.56;;;-0.73;86.00
43119;BME280;28729;49.838;8.650;2023-03-01T04:36:01;100667.81;;;-0.67;85.00
43119;BME280;28729;49.838;8.650;2023-03-01T04:40:07;100669.81;;;-0.69;85.88
43119;BME280;28729;49.838;8.650;2023-03-01T04:44:17;100663.22;;;-0.66;85.38
43119;BME280;28729;49.838;8.650;2023-03-01T04:48:22;100665.56;;;-0.72;86.11
43119;BME280;28729;49.838;8.650;2023-03-01T04:52:24;100666.78;;;-0.66;85.38
43119;BME280;28729;49.838;8.650;2023-03-01T04:56:26;100668.50;;;-0.65;84.97
43119;BME280;28729;49.838;8.650;2023-03-01T05:00:27;100668.50;;;-0.65;85.19
43119;BME280;28729;49.838;8.650;2023-03-01T05:04:30;100662.53;;;-0.69;85.22
43119;BME280;28729;49.838;8.650;2023-03-01T05:08:32;100661.38;;;-0.66;84.88
43119;BME280;28729;49.838;8.650;2023-03-01T05:12:35;100662.06;;;-0.64;84.52
43119;BME280;28729;49.838;8.650;2023-03-01T05:16:38;100652.94;;;-0.63;84.16
43119;BME280;28729;49.838;8.650;2023-03-01T05:20:40;100655.34;;;-0.60;84.63
43119;BME280;28729;49.838;8.650;2023-03-01T05:24:42;100649.91;;;-0.60;84.11
43119;BME280;28729;49.838;8.650;2023-03-01T05:28:44;100646.91;;;-0.57;84.67
43119;BME280;28729;49.838;8.650;2023-03-01T05:32:48;100643.88;;;-0.54;84.61
43119;BME280;28729;49.838;8.650;2023-03-01T05:36:50;100646.56;;;-0.54;84.20
43119;BME280;28729;49.838;8.650;2023-03-01T05:40:54;100644.88;;;-0.55;84.13
43119;BME280;28729;49.838;8.650;2023-03-01T05:44:56;100644.75;;;-0.53;84.74
43119;BME280;28729;49.838;8.650;2023-03-01T05:48:58;100644.56;;;-0.52;84.89
43119;BME280;28729;49.838;8.650;2023-03-01T05:53:02;100641.88;;;-0.52;84.91
43119;BME280;28729;49.838;8.650;2023-03-01T05:57:07;100643.56;;;-0.51;85.04
43119;BME280;28729;49.838;8.650;2023-03-01T06:01:11;100647.97;;;-0.50;84.85
43119;BME280;28729;49.838;8.650;2023-03-01T06:05:14;100639.16;;;-0.52;85.04
43119;BME280;28729;49.838;8.650;2023-03-01T06:09:16;100648.31;;;-0.53;84.95
43119;BME280;28729;49.838;8.650;2023-03-01T06:13:18;100647.47;;;-0.53;85.07
43119;BME280;28729;49.838;8.650;2023-03-01T06:17:19;100654.56;;;-0.52;85.47
43119;BME280;28729;49.838;8.650;2023-03-01T06:21:21;100647.59;;;-0.55;85.48
43119;BME280;28729;49.838;8.650;2023-03-01T06:25:25;100645.72;;;-0.54;85.59
43119;BME280;28729;49.838;8.650;2023-03-01T06:29:28;100646.25;;;-0.51;85.90
43119;BME280;28729;49.838;8.650;2023-03-01T06:33:30;100640.56;;;-0.48;86.02
43119;BME280;28729;49.838;8.650;2023-03-01T06:37:32;100639.22;;;-0.43;86.13
43119;BME280;28729;49.838;8.650;2023-03-01T06:41:33;100642.47;;;-0.40;86.41
43119;BME280;28729;49.838;8.650;2023-03-01T06:45:37;100642.00;;;-0.35;86.31
43119;BME280;28729;49.838;8.650;2023-03-01T06:49:38;100644.38;;;-0.32;86.50
43119;BME280;28729;49.838;8.650;2023-03-01T06:53:40;100645.75;;;-0.28;86.40
43119;BME280;28729;49.838;8.650;2023-03-01T06:57:44;100642.59;;;-0.24;86.43
43119;BME280;28729;49.838;8.650;2023-03-01T07:01:46;100641.78;;;-0.16;86.01
43119;BME280;28729;49.838;8.650;2023-03-01T07:05:49;100637.09;;;-0.06;85.85
43119;BME280;28729;49.838;8.650;2023-03-01T07:09:53;100634.91;;;-0.02;86.15
43119;BME280;28729;49.838;8.650;2023-03-01T07:13:55;100639.19;;;0.09;85.19
43119;BME280;28729;49.838;8.650;2023-03-01T07:17:58;100631.44;;;0.14;83.98
43119;BME280;28729;49.838;8.650;2023-03-01T07:22:00;100627.09;;;0.29;83.08
43119;BME280;28729;49.838;8.650;2023-03-01T07:26:04;100626.84;;;0.49;82.52
43119;BME280;28729;49.838;8.650;2023-03-01T07:30:06;100626.19;;;0.55;81.03
43119;BME280;28729;49.838;8.650;2023-03-01T07:34:15;100627.22;;;0.70;80.54
43119;BME280;28729;49.838;8.650;2023-03-01T07:38:16;100623.53;;;0.87;80.25
43119;BME280;28729;49.838;8.650;2023-03-01T07:42:20;100626.09;;;0.97;79.15
43119;BME280;28729;49.838;8.650;2023-03-01T07:46:22;100615.75;;;1.09;78.43
43119;BME280;28729;49.838;8.650;2023-03-01T07:50:24;100606.59;;;1.18;77.47
43119;BME280;28729;49.838;8.650;2023-03-01T07:54:27;100607.81;;;1.40;77.07
43119;BME280;28729;49.838;8.650;2023-03-01T07:58:29;100607.91;;;1.63;76.37
43119;BME280;28729;49.838;8.650;2023-03-01T08:02:31;100598.03;;;1.78;74.07
43119;BME280;28729;49.838;8.650;2023-03-01T08:06:34;100603.09;;;1.98;74.04
43119;BME280;28729;49.838;8.650;2023-03-01T08:10:37;100604.88;;;2.22;73.64
43119;BME280;28729;49.838;8.650;2023-03-01T08:14:39;100604.81;;;2.38;72.47
43119;BME280;28729;49.838;8.650;2023-03-01T08:18:41;100600.47;;;2.52;71.75
43119;BME280;28729;49.838;8.650;2023-03-01T08:22:45;100596.53;;;2.63;69.20
43119;BME280;28729;49.838;8.650;2023-03-01T08:26:46;100584.81;;;2.85;70.21
43119;BME280;28729;49.838;8.650;2023-03-01T08:30:48;100588.19;;;2.87;67.80
43119;BME280;28729;49.838;8.650;2023-03-01T08:34:50;100585.69;;;2.86;65.63
43119;BME280;28729;49.838;8.650;2023-03-01T08:38:54;100586.69;;;3.08;66.81
43119;BME280;28729;49.838;8.650;2023-03-01T08:42:57;100583.22;;;3.37;66.62
43119;BME280;28729;49.838;8.650;2023-03-01T08:46:59;100584.66;;;3.62;65.28
43119;BME280;28729;49.838;8.650;2023-03-01T08:55:10;100571.53;;;3.81;63.42
43119;BME280;28729;49.838;8.650;2023-03-01T08:59:13;100564.97;;;3.90;62.96
43119;BME280;28729;49.838;8.650;2023-03-01T09:03:15;100552.47;;;4.10;62.70
43119;BME280;28729;49.838;8.650;2023-03-01T09:07:16;100562.22;;;4.20;60.52
43119;BME280;28729;49.838;8.650;2023-03-01T09:11:21;100548.09;;;4.16;60.49
43119;BME280;28729;49.838;8.650;2023-03-01T09:15:24;100548.94;;;4.31;60.38
43119;BME280;28729;49.838;8.650;2023-03-01T09:19:25;100550.88;;;4.52;59.67
43119;BME280;28729;49.838;8.650;2023-03-01T09:23:27;100543.88;;;4.65;59.62
43119;BME280;28729;49.838;8.650;2023-03-01T09:27:29;100544.06;;;4.85;59.08
43119;BME280;28729;49.838;8.650;2023-03-01T09:31:31;100533.66;;;4.95;57.59
43119;BME280;28729;49.838;8.650;2023-03-01T09:35:34;100525.34;;;5.03;57.78
43119;BME280;28729;49.838;8.650;2023-03-01T09:39:37;100529.19;;;5.09;57.91
43119;BME280;28729;49.838;8.650;2023-03-01T09:47:42;100526.50;;;5.43;56.80
43119;BME280;28729;49.838;8.650;2023-03-01T09:51:55;100510.63;;;5.54;55.64
43119;BME280;28729;49.838;8.650;2023-03-01T09:56:10;100517.59;;;5.56;54.86
43119;BME280;28729;49.838;8.650;2023-03-01T10:00:35;100504.41;;;5.73;53.70
43119;BME280;28729;49.838;8.650;2023-03-01T10:08:54;100510.16;;;6.13;53.90
43119;BME280;28729;49.838;8.650;2023-03-01T10:13:00;100502.78;;;6.20;51.89
43119;BME280;28729;49.838;8.650;2023-03-01T10:21:18;100500.97;;;6.41;49.81
43119;BME280;28729;49.838;8.650;2023-03-01T10:30:05;100490.09;;;6.74;49.59
43119;BME280;28729;49.838;8.650;2023-03-01T10:34:17;100486.09;;;6.90;49.56
43119;BME280;28729;49.838;8.650;2023-03-01T10:38:20;100476.63;;;6.99;49.89
43119;BME280;28729;49.838;8.650;2023-03-01T10:42:26;100474.31;;;6.96;48.03
43119;BME280;28729;49.838;8.650;2023-03-01T10:46:34;100471.38;;;6.91;47.05
43119;BME280;28729;49.838;8.650;2023-03-01T10:50:37;100460.19;;;6.85;47.29
43119;BME280;28729;49.838;8.650;2023-03-01T10:54:51;100464.00;;;6.91;48.24
43119;BME280;28729;49.838;8.650;2023-03-01T10:59:04;100452.41;;;7.02;47.38
43119;BME280;28729;49.838;8.650;2023-03-01T11:03:11;100457.69;;;7.17;46.82
43119;BME280;28729;49.838;8.650;2023-03-01T11:07:14;100444.59;;;7.33;46.93
43119;BME280;28729;49.838;8.650;2023-03-01T11:15:27;100435.38;;;7.79;45.75
43119;BME280;28729;49.838;8.650;2023-03-01T11:19:32;100426.25;;;7.98;45.43
43119;BME280;28729;49.838;8.650;2023-03-01T11:23:37;100419.63;;;8.12;45.41
43119;BME280;28729;49.838;8.650;2023-03-01T11:27:43;100408.97;;;8.29;43.26
43119;BME280;28729;49.838;8.650;2023-03-01T11:31:46;100397.34;;;8.34;43.06
43119;BME280;28729;49.838;8.650;2023-03-01T11:40:26;100389.66;;;8.49;41.94
43119;BME280;28729;49.838;8.650;2023-03-01T11:44:31;100396.28;;;8.66;43.04
43119;BME280;28729;49.838;8.650;2023-03-01T11:57:47;100379.97;;;9.40;40.55
43119;BME280;28729;49.838;8.650;2023-03-01T12:06:48;100370.88;;;10.67;39.85
43119;BME280;28729;49.838;8.650;2023-03-01T12:24:43;100321.78;;;12.83;35.55
43119;BME280;28729;49.838;8.650;2023-03-01T12:33:22;100291.88;;;13.57;34.56
43119;BME280;28729;49.838;8.650;2023-03-01T12:37:51;100285.16;;;14.29;34.25
43119;BME280;28729;49.838;8.650;2023-03-01T12:42:26;100278.69;;;14.46;32.46
43119;BME280;28729;49.838;8.650;2023-03-01T12:50:41;100267.19;;;13.56;32.05
43119;BME280;28729;49.838;8.650;2023-03-01T12:54:44;100265.56;;;14.09;32.44
43119;BME280;28729;49.838;8.650;2023-03-01T13:03:20;100245.41;;;14.46;31.32
43119;BME280;28729;49.838;8.650;2023-03-01T13:07:31;100243.56;;;14.56;31.32
43119;BME280;28729;49.838;8.650;2023-03-01T13:11:41;100245.50;;;14.98;31.69
43119;BME280;28729;49.838;8.650;2023-03-01T13:15:45;100238.81;;;15.52;30.63
43119;BME280;28729;49.838;8.650;2023-03-01T13:19:56;100230.34;;;15.11;29.50
43119;BME280;28729;49.838;8.650;2023-03-01T13:24:00;100227.78;;;14.30;29.51
43119;BME280;28729;49.838;8.650;2023-03-01T13:32:44;100221.50;;;12.53;32.14
43119;BME280;28729;49.838;8.650;2023-03-01T13:36:47;100219.41;;;12.10;32.41
43119;BME280;28729;49.838;8.650;2023-03-01T13:44:52;100209.28;;;11.70;33.41
43119;BME280;28729;49.838;8.650;2023-03-01T13:48:56;100219.47;;;11.41;33.62
43119;BME280;28729;49.838;8.650;2023-03-01T13:53:00;100207.53;;;11.24;34.31
43119;BME280;28729;49.838;8.650;2023-03-01T13:57:03;100206.09;;;10.81;34.73
43119;BME280;28729;49.838;8.650;2023-03-01T14:01:18;100200.94;;;10.49;35.13
43119;BME280;28729;49.838;8.650;2023-03-01T14:05:21;100197.31;;;10.13;35.24
43119;BME280;28729;49.838;8.650;2023-03-01T14:09:26;100188.50;;;9.81;35.89
43119;BME280;28729;49.838;8.650;2023-03-01T14:22:13;100180.38;;;9.86;36.37
43119;BME280;28729;49.838;8.650;2023-03-01T14:26:22;100184.72;;;9.94;36.68
43119;BME280;28729;49.838;8.650;2023-03-01T14:30:32;100176.81;;;9.86;36.94
43119;BME280;28729;49.838;8.650;2023-03-01T14:34:43;100161.44;;;9.78;36.69
43119;BME280;28729;49.838;8.650;2023-03-01T14:38:46;100171.78;;;9.94;36.66
43119;BME280;28729;49.838;8.650;2023-03-01T14:42:49;100160.53;;;10.08;36.69
43119;BME280;28729;49.838;8.650;2023-03-01T14:46:53;100162.44;;;9.95;36.52
43119;BME280;28729;49.838;8.650;2023-03-01T14:50:57;100166.00;;;9.84;36.90
43119;BME280;28729;49.838;8.650;2023-03-01T14:54:59;100162.94;;;10.04;37.24
43119;BME280;28729;49.838;8.650;2023-03-01T14:59:01;100152.53;;;10.06;36.98
43119;BME280;28729;49.838;8.650;2023-03-01T15:03:08;100160.91;;;9.88;37.29
43119;BME280;28729;49.838;8.650;2023-03-01T15:07:16;100160.03;;;9.87;37.18
43119;BME280;28729;49.838;8.650;2023-03-01T15:11:28;100160.31;;;9.97;37.75
43119;BME280;28729;49.838;8.650;2023-03-01T15:15:33;100152.59;;;10.30;37.75
43119;BME280;28729;49.838;8.650;2023-03-01T15:19:35;100157.69;;;10.49;37.16
43119;BME280;28729;49.838;8.650;2023-03-01T15:23:38;100156.47;;;10.81;37.26
43119;BME280;28729;49.838;8.650;2023-03-01T15:27:45;100166.34;;;10.65;36.49
43119;BME280;28729;49.838;8.650;2023-03-01T15:32:05;100173.41;;;10.37;37.12
43119;BME280;28729;49.838;8.650;2023-03-01T15:40:33;100183.78;;;10.00;38.02
43119;BME280;28729;49.838;8.650;2023-03-01T15:44:38;100180.28;;;9.93;38.21
43119;BME280;28729;49.838;8.650;2023-03-01T15:48:47;100180.25;;;9.81;38.38
43119;BME280;28729;49.838;8.650;2023-03-01T15:52:51;100176.97;;;9.61;38.62
43119;BME280;28729;49.838;8.650;2023-03-01T15:56:53;100186.03;;;9.49;38.84
43119;BME280;28729;49.838;8.650;2023-03-01T16:00:54;100182.88;;;9.34;39.35
43119;BME280;28729;49.838;8.650;2023-03-01T16:05:03;100176.69;;;9.20;39.70
43119;BME280;28729;49.838;8.650;2023-03-01T16:09:05;100177.03;;;8.94;40.90
43119;BME280;28729;49.838;8.650;2023-03-01T16:13:07;100183.00;;;8.90;40.42
43119;BME280;28729;49.838;8.650;2023-03-01T16:17:09;100189.25;;;8.79;40.40
43119;BME280;28729;49.838;8.650;2023-03-01T16:21:20;100181.84;;;8.61;40.99
43119;BME280;28729;49.838;8.650;2023-03-01T16:25:22;100185.19;;;8.45;41.33
43119;BME280;28729;49.838;8.650;2023-03-01T16:29:24;100181.53;;;8.26;41.88
43119;BME280;28729;49.838;8.650;2023-03-01T16:33:28;100191.41;;;8.09;42.01
43119;BME280;28729;49.838;8.650;2023-03-01T16:37:35;100191.84;;;8.06;41.95
43119;BME280;28729;49.838;8.650;2023-03-01T16:41:38;100194.53;;;7.87;42.66
43119;BME280;28729;49.838;8.650;2023-03-01T16:45:39;100193.13;;;7.78;42.59
43119;BME280;28729;49.838;8.650;2023-03-01T16:49:42;100189.63;;;7.64;42.83
43119;BME280;28729;49.838;8.650;2023-03-01T16:53:44;100186.19;;;7.44;43.36
43119;BME280;28729;49.838;8.650;2023-03-01T16:57:47;100189.47;;;7.21;44.32
43119;BME280;28729;49.838;8.650;2023-03-01T17:01:49;100204.72;;;7.03;44.73
43119;BME280;28729;49.838;8.650;2023-03-01T17:05:51;100205.00;;;6.89;44.85
43119;BME280;28729;49.838;8.650;2023-03-01T17:09:53;100202.75;;;6.72;45.83
43119;BME280;28729;49.838;8.650;2023-03-01T17:13:54;100197.09;;;6.60;45.75
43119;BME280;28729;49.838;8.650;2023-03-01T17:17:56;100206.41;;;6.39;46.50
43119;BME280;28729;49.838;8.650;2023-03-01T17:21:58;100208.50;;;6.18;46.44
43119;BME280;28729;49.838;8.650;2023-03-01T17:26:02;100208.06;;;6.01;47.23
43119;BME280;28729;49.838;8.650;2023-03-01T17:30:06;100221.53;;;5.89;48.20
43119;BME280;28729;49.838;8.650;2023-03-01T17:34:13;100211.81;;;5.73;48.54
43119;BME280;28729;49.838;8.650;2023-03-01T17:38:17;100208.25;;;5.66;49.49
43119;BME280;28729;49.838;8.650;2023-03-01T17:42:18;100203.19;;;5.63;49.24
43119;BME280;28729;49.838;8.650;2023-03-01T17:46:21;100211.34;;;5.49;50.14
43119;BME280;28729;49.838;8.650;2023-03-01T17:50:23;100201.69;;;5.47;50.44
43119;BME280;28729;49.838;8.650;2023-03-01T17:54:24;100197.25;;;5.39;49.85
43119;BME280;28729;49.838;8.650;2023-03-01T17:58:26;100204.38;;;5.27;50.72
43119;BME280;28729;49.838;8.650;2023-03-01T18:02:31;100204.34;;;5.20;51.26
43119;BME280;28729;49.838;8.650;2023-03-01T18:06:34;100201.41;;;5.15;51.03
43119;BME280;28729;49.838;8.650;2023-03-01T18:10:37;100189.16;;;5.05;51.77
43119;BME280;28729;49.838;8.650;2023-03-01T18:14:39;100187.63;;;4.89;52.01
43119;BME280;28729;49.838;8.650;2023-03-01T18:18:42;100189.47;;;4.82;51.77
43119;BME280;28729;49.838;8.650;2023-03-01T18:22:45;100203.31;;;4.73;52.62
43119;BME280;28729;49.838;8.650;2023-03-01T18:26:48;100204.16;;;4.74;52.97
43119;BME280;28729;49.838;8.650;2023-03-01T18:30:56;100201.84;;;4.71;52.93
43119;BME280;28729;49.838;8.650;2023-03-01T18:34:59;100203.47;;;4.65;53.41
43119;BME280;28729;49.838;8.650;2023-03-01T18:39:02;100209.13;;;4.64;53.42
43119;BME280;28729;49.838;8.650;2023-03-01T18:43:04;100207.59;;;4.54;54.24
43119;BME280;28729;49.838;8.650;2023-03-01T18:47:06;100205.91;;;4.47;54.29
43119;BME280;28729;49.838;8.650;2023-03-01T18:51:15;100203.50;;;4.37;54.28
43119;BME280;28729;49.838;8.650;2023-03-01T18:55:17;100203.25;;;4.25;54.92
43119;BME280;28729;49.838;8.650;2023-03-01T18:59:23;100209.28;;;4.21;55.19
43119;BME280;28729;49.838;8.650;2023-03-01T19:03:24;100221.19;;;4.13;55.38
43119;BME280;28729;49.838;8.650;2023-03-01T19:07:27;100212.56;;;4.09;55.31
43119;BME280;28729;49.838;8.650;2023-03-01T19:11:29;100214.78;;;3.99;55.47
43119;BME280;28729;49.838;8.650;2023-03-01T19:15:35;100222.06;;;3.92;56.04
43119;BME280;28729;49.838;8.650;2023-03-01T19:19:40;100216.75;;;3.84;56.18
43119;BME280;28729;49.838;8.650;2023-03-01T19:23:41;100221.28;;;3.77;56.08
43119;BME280;28729;49.838;8.650;2023-03-01T19:27:43;100221.63;;;3.67;56.76
43119;BME280;28729;49.838;8.650;2023-03-01T19:31:45;100234.59;;;3.65;57.24
43119;BME280;28729;49.838;8.650;2023-03-01T19:35:48;100233.09;;;3.62;56.69
43119;BME280;28729;49.838;8.650;2023-03-01T19:39:50;100236.34;;;3.51;57.69
43119;BME280;28729;49.838;8.650;2023-03-01T19:43:52;100242.31;;;3.40;58.82
43119;BME280;28729;49.838;8.650;2023-03-01T19:47:54;100242.03;;;3.35;58.47
43119;BME280;28729;49.838;8.650;2023-03-01T19:51:58;100242.81;;;3.29;58.87
43119;BME280;28729;49.838;8.650;2023-03-01T19:56:01;100242.72;;;3.22;59.17
43119;BME280;28729;49.838;8.650;2023-03-01T20:00:04;100248.94;;;3.16;59.99
43119;BME280;28729;49.838;8.650;2023-03-01T20:04:12;100253.16;;;3.18;58.97
43119;BME280;28729;49.838;8.650;2023-03-01T20:08:14;100247.16;;;3.08;59.38
43119;BME280;28729;49.838;8.650;2023-03-01T20:12:16;100244.91;;;2.97;59.84
43119;BME280;28729;49.838;8.650;2023-03-01T20:16:19;100242.41;;;2.95;59.62
43119;BME280;28729;49.838;8.650;2023-03-01T20:20:23;100243.81;;;2.91;59.89
43119;BME280;28729;49.838;8.650;2023-03-01T20:24:25;100239.59;;;2.89;59.84
43119;BME280;28729;49.838;8.650;2023-03-01T20:28:26;100234.91;;;2.83;60.24
43119;BME280;28729;49.838;8.650;2023-03-01T20:32:29;100236.69;;;2.76;60.25
43119;BME280;28729;49.838;8.650;2023-03-01T20:36:31;100234.56;;;2.71;60.41
43119;BME280;28729;49.838;8.650;2023-03-01T20:40:35;100226.94;;;2.66;60.62
43119;BME280;28729;49.838;8.650;2023-03-01T20:44:37;100213.03;;;2.61;61.13
43119;BME280;28729;49.838;8.650;2023-03-01T20:48:44;100214.25;;;2.59;61.29
43119;BME280;28729;49.838;8.650;2023-03-01T20:52:46;100198.69;;;2.53;61.99
43119;BME280;28729;49.838;8.650;2023-03-01T20:56:48;100208.09;;;2.50;62.41
43119;BME280;28729;49.838;8.650;2023-03-01T21:00:50;100203.22;;;2.45;61.93
43119;BME280;28729;49.838;8.650;2023-03-01T21:04:52;100203.38;;;2.44;61.88
43119;BME280;28729;49.838;8.650;2023-03-01T21:08:55;100205.63;;;2.40;62.20
43119;BME280;28729;49.838;8.650;2023-03-01T21:12:56;100198.31;;;2.41;61.76
43119;BME280;28729;49.838;8.650;2023-03-01T21:16:58;100197.09;;;2.43;62.66
43119;BME280;28729;49.838;8.650;2023-03-01T21:21:06;100204.41;;;2.43;63.42
43119;BME280;28729;49.838;8.650;2023-03-01T21:25:08;100199.44;;;2.46;62.94
43119;BME280;28729;49.838;8.650;2023-03-01T21:29:09;100194.22;;;2.45;62.92
43119;BME280;28729;49.838;8.650;2023-03-01T21:33:13;100199.66;;;2.45;62.98
43119;BME280;28729;49.838;8.650;2023-03-01T21:37:14;100195.88;;;2.46;62.68
43119;BME280;28729;49.838;8.650;2023-03-01T21:41:18;100200.19;;;2.40;63.52
43119;BME280;28729;49.838;8.650;2023-03-01T21:45:20;100192.88;;;2.41;63.05
43119;BME280;28729;49.838;8.650;2023-03-01T21:49:22;100199.34;;;2.40;63.04
43119;BME280;28729;49.838;8.650;2023-03-01T21:53:25;100199.56;;;2.38;63.21
43119;BME280;28729;49.838;8.650;2023-03-01T21:57:26;100194.66;;;2.34;64.07
43119;BME280;28729;49.838;8.650;2023-03-01T22:01:28;100199.44;;;2.32;63.60
43119;BME280;28729;49.838;8.650;2023-03-01T22:05:30;100183.03;;;2.25;64.94
43119;BME280;28729;49.838;8.650;2023-03-01T22:09:32;100182.75;;;2.20;64.79
43119;BME280;28729;49.838;8.650;2023-03-01T22:13:36;100189.78;;;2.14;64.74
43119;BME280;28729;49.838;8.650;2023-03-01T22:17:38;100172.16;;;2.10;65.56
43119;BME280;28729;49.838;8.650;2023-03-01T22:21:41;100165.66;;;2.11;65.68
43119;BME280;28729;49.838;8.650;2023-03-01T22:25:43;100172.16;;;2.10;66.51
43119;BME280;28729;49.838;8.650;2023-03-01T22:29:45;100168.22;;;2.13;66.58
43119;BME280;28729;49.838;8.650;2023-03-01T22:33:46;100161.19;;;2.18;66.27
43119;BME280;28729;49.838;8.650;2023-03-01T22:37:48;100162.94;;;2.11;67.01
43119;BME280;28729;49.838;8.650;2023-03-01T22:41:50;100168.38;;;2.11;67.19
43119;BME280;28729;49.838;8.650;2023-03-01T22:45:51;100168.22;;;2.13;66.82
43119;BME280;28729;49.838;8.650;2023-03-01T22:49:54;100169.06;;;2.13;66.26
43119;BME280;28729;49.838;8.650;2023-03-01T22:53:56;100173.19;;;2.09;67.30
43119;BME280;28729;49.838;8.650;2023-03-01T22:57:58;100182.66;;;2.13;67.41
43119;BME280;28729;49.838;8.650;2023-03-01T23:02:00;100178.72;;;2.16;66.65
43119;BME280;28729;49.838;8.650;2023-03-01T23:06:02;100174.78;;;2.18;66.44